Time;durP1;ratioP1;P1;durP2;ratioP2;P2;SDS_P1;SDS_P2;PMS_P1;PMS_P2;Temp;Humidity;BMP_temperature;BMP_pressure;BME280_temperature;BME280_humidity;BME280_pressure;Samples;Min_cycle;Max_cycle;Signal;HPM_P1;HPM_P2
2023/08/20 00:01:28;;;;;;;4.78;2.47;;;23.40;61.80;25.10;101901.00;;;;5047511;28;20192;-81
2023/08/20 00:03:56;;;;;;;3.58;2.25;;;23.40;61.70;25.10;101913.00;;;;5046399;28;20337;-82
2023/08/20 00:06:24;;;;;;;3.67;2.50;;;23.40;61.70;25.10;101908.00;;;;5047107;28;20195;-81
2023/08/20 00:08:52;;;;;;;4.30;2.25;;;23.40;61.60;25.00;101911.00;;;;5046248;28;20210;-81
2023/08/20 00:11:19;;;;;;;9.90;2.72;;;23.40;61.60;25.00;101906.00;;;;5046307;28;20235;-81
2023/08/20 00:13:46;;;;;;;4.97;2.33;;;23.40;61.60;25.00;101915.00;;;;5047043;28;20615;-81
2023/08/20 00:16:16;;;;;;;3.95;2.30;;;23.40;61.60;25.00;101915.00;;;;5047752;28;20187;-82
2023/08/20 00:18:43;;;;;;;3.00;2.15;;;23.30;61.50;25.00;101922.00;;;;5044057;28;20668;-81
2023/08/20 00:21:11;;;;;;;7.13;2.63;;;23.30;61.60;24.90;101918.00;;;;5050944;28;20192;-81
2023/08/20 00:23:39;;;;;;;4.65;2.22;;;23.30;61.60;24.90;101921.00;;;;5050981;28;20548;-81
2023/08/20 00:26:07;;;;;;;3.25;2.65;;;23.30;61.60;24.90;101917.00;;;;5033781;28;20200;-81
2023/08/20 00:28:34;;;;;;;2.63;2.15;;;23.20;61.60;24.90;101911.00;;;;5034819;28;20211;-81
2023/08/20 00:31:02;;;;;;;5.25;2.70;;;23.20;61.70;24.90;101918.00;;;;5047879;28;20229;-81
2023/08/20 00:33:30;;;;;;;2.95;2.20;;;23.20;61.70;24.80;101925.00;;;;5051367;28;20239;-81
2023/08/20 00:35:57;;;;;;;4.68;2.55;;;23.20;61.80;24.80;101923.00;;;;5050075;28;20196;-81
2023/08/20 00:38:24;;;;;;;2.85;2.17;;;23.10;61.70;24.80;101931.00;;;;5049995;28;20566;-82
2023/08/20 00:40:51;;;;;;;5.68;2.58;;;23.10;61.80;24.80;101933.00;;;;5051302;28;20207;-81
2023/08/20 00:43:19;;;;;;;2.85;2.17;;;23.10;61.80;24.70;101946.00;;;;5049724;28;20207;-81
2023/08/20 00:45:46;;;;;;;4.13;2.13;;;23.10;61.80;24.70;101948.00;;;;5037934;28;20204;-81
2023/08/20 00:48:14;;;;;;;5.90;2.13;;;23.00;61.90;24.70;101952.00;;;;5050131;28;20690;-81
2023/08/20 00:50:42;;;;;;;3.08;2.30;;;23.00;62.00;24.70;101958.00;;;;5050465;28;20227;-81
2023/08/20 00:53:12;;;;;;;3.05;1.88;;;23.00;62.10;24.70;101957.00;;;;5050107;28;20192;-81
2023/08/20 00:55:39;;;;;;;2.88;1.90;;;23.00;62.20;24.70;101964.00;;;;5049357;28;20667;-81
2023/08/20 00:58:06;;;;;;;3.05;2.58;;;23.00;62.30;24.70;101961.00;;;;5049079;28;20754;-82
2023/08/20 01:00:33;;;;;;;3.35;2.28;;;23.00;62.40;24.70;101964.00;;;;5050608;28;20694;-81
2023/08/20 01:03:00;;;;;;;4.15;2.35;;;23.00;62.40;24.70;101968.00;;;;5033537;28;20206;-81
2023/08/20 01:05:34;;;;;;;4.90;2.58;;;23.00;62.50;24.60;101967.00;;;;5036484;28;20192;-81
2023/08/20 01:08:20;;;;;;;2.50;2.10;;;23.00;62.60;24.50;101965.00;;;;5040967;28;20970;-81
2023/08/20 01:10:58;;;;;;;2.85;2.25;;;23.00;62.80;24.60;101967.00;;;;5048374;28;20242;-81
2023/08/20 01:13:25;;;;;;;3.17;2.33;;;23.00;62.60;24.70;101968.00;;;;5049515;28;20200;-81
2023/08/20 01:15:53;;;;;;;3.80;2.15;;;23.00;62.50;24.60;101962.00;;;;5041639;28;20572;-81
2023/08/20 01:18:20;;;;;;;2.67;2.03;;;23.00;62.50;24.60;101954.00;;;;5044580;28;20200;-81
2023/08/20 01:20:56;;;;;;;3.13;2.17;;;22.90;62.50;24.60;101978.00;;;;5049734;28;20397;-81
2023/08/20 01:24:11;;;;;;;4.30;2.65;;;22.90;62.60;24.50;101985.00;;;;5049892;28;20198;-82
2023/08/20 01:27:05;;;;;;;2.70;2.10;;;22.90;62.80;24.50;101983.00;;;;5030876;28;20196;-81
2023/08/20 01:29:34;;;;;;;3.30;2.50;;;22.90;62.70;24.60;101985.00;;;;5029611;28;20228;-81
2023/08/20 01:32:03;;;;;;;3.65;2.40;;;22.90;62.50;24.60;101981.00;;;;5047859;28;20207;-81
2023/08/20 01:34:30;;;;;;;5.00;2.45;;;22.90;62.60;24.50;101973.00;;;;5049239;28;20207;-81
2023/08/20 01:36:57;;;;;;;5.03;2.35;;;22.90;62.60;24.60;101975.00;;;;5032826;28;20203;-82
2023/08/20 01:39:24;;;;;;;3.13;2.40;;;22.90;62.70;24.50;101982.00;;;;5048235;28;20199;-81
2023/08/20 01:41:51;;;;;;;3.25;2.45;;;22.80;62.60;24.50;101986.00;;;;5048211;28;20214;-81
2023/08/20 01:44:18;;;;;;;3.65;2.47;;;22.80;62.60;24.50;101992.00;;;;5049750;28;20206;-81
2023/08/20 01:46:46;;;;;;;4.32;2.33;;;22.80;62.70;24.40;101983.00;;;;5047675;28;20582;-81
2023/08/20 01:49:13;;;;;;;5.07;2.45;;;22.80;62.70;24.40;101990.00;;;;5049295;28;20202;-82
2023/08/20 01:51:40;;;;;;;7.03;2.35;;;22.80;62.70;24.40;102004.00;;;;5049332;28;20225;-81
2023/08/20 01:54:08;;;;;;;4.80;2.30;;;22.70;62.70;24.40;101998.00;;;;5044540;28;20196;-81
2023/08/20 01:56:35;;;;;;;2.78;2.17;;;22.70;62.60;24.40;102000.00;;;;5048284;28;20196;-81
2023/08/20 01:59:02;;;;;;;3.20;2.30;;;22.70;62.70;24.40;101999.00;;;;5034136;28;20199;-81
2023/08/20 02:01:29;;;;;;;3.00;2.42;;;22.70;62.70;24.40;102003.00;;;;5049236;28;20192;-81
2023/08/20 02:03:57;;;;;;;4.18;2.67;;;22.60;62.60;24.30;102002.00;;;;5049939;28;20580;-81
2023/08/20 02:06:24;;;;;;;3.60;2.22;;;22.60;62.70;24.30;102005.00;;;;5048471;28;20671;-81
2023/08/20 02:08:52;;;;;;;3.33;2.15;;;22.60;62.70;24.30;102004.00;;;;5047923;28;20208;-81
2023/08/20 02:11:19;;;;;;;3.78;2.30;;;22.60;62.80;24.30;102001.00;;;;5049233;28;20267;-81
2023/08/20 02:13:46;;;;;;;3.03;1.95;;;22.60;62.80;24.20;101999.00;;;;5049361;28;20192;-81
2023/08/20 02:16:13;;;;;;;2.15;1.63;;;22.50;62.70;24.20;101997.00;;;;5048195;28;20207;-81
2023/08/20 02:18:40;;;;;;;3.30;2.63;;;22.50;62.80;24.20;101991.00;;;;5041535;28;20218;-81
2023/08/20 02:21:08;;;;;;;4.03;2.38;;;22.50;62.80;24.20;101993.00;;;;5049734;28;20188;-81
2023/08/20 02:23:37;;;;;;;3.85;1.90;;;22.50;62.90;24.10;101999.00;;;;5048680;28;20210;-80
2023/08/20 02:26:04;;;;;;;2.78;2.10;;;22.50;62.90;24.10;102002.00;;;;5047275;28;20206;-81
2023/08/20 02:28:31;;;;;;;4.07;2.50;;;22.40;62.80;24.10;102001.00;;;;5044936;28;20667;-81
2023/08/20 02:30:59;;;;;;;2.45;2.20;;;22.40;62.80;24.10;101991.00;;;;5047671;28;20219;-81
2023/08/20 02:33:26;;;;;;;2.95;2.15;;;22.40;62.80;24.10;101982.00;;;;5048393;28;20200;-81
2023/08/20 02:35:53;;;;;;;3.45;2.45;;;22.40;62.80;24.00;101982.00;;;;5048327;28;20659;-82
2023/08/20 02:38:22;;;;;;;3.10;2.40;;;22.30;62.80;24.00;101976.00;;;;5048258;28;20211;-81
2023/08/20 02:40:49;;;;;;;6.13;2.88;;;22.30;62.90;24.00;101971.00;;;;5048164;28;20289;-82
2023/08/20 02:43:16;;;;;;;4.32;2.55;;;22.30;62.90;24.00;101975.00;;;;5046464;28;20945;-81
2023/08/20 02:45:44;;;;;;;4.40;2.58;;;22.20;62.80;23.90;101969.00;;;;5047552;28;20207;-81
2023/08/20 02:48:12;;;;;;;4.45;2.47;;;22.20;62.90;23.90;101974.00;;;;5047220;28;20686;-82
2023/08/20 02:50:39;;;;;;;4.82;3.20;;;22.20;62.90;23.90;101973.00;;;;5048111;28;20227;-81
2023/08/20 02:53:06;;;;;;;3.20;2.25;;;22.20;62.90;23.90;101971.00;;;;5047927;28;20223;-81
2023/08/20 02:55:35;;;;;;;3.55;2.63;;;22.20;62.90;23.80;101976.00;;;;5047873;28;20723;-81
2023/08/20 02:58:03;;;;;;;3.85;2.60;;;22.10;62.80;23.80;101975.00;;;;5046178;28;20253;-81
2023/08/20 03:00:32;;;;;;;3.83;2.40;;;22.10;63.60;23.80;101969.00;;;;5042351;28;20245;-81
2023/08/20 03:03:00;;;;;;;4.13;2.45;;;22.10;62.90;23.80;101972.00;;;;5043074;28;20283;-81
2023/08/20 03:05:27;;;;;;;4.30;2.97;;;22.00;62.90;23.70;101971.00;;;;5048598;28;20234;-81
2023/08/20 03:07:54;;;;;;;4.93;2.72;;;22.00;62.90;23.70;101973.00;;;;5042723;28;20208;-81
2023/08/20 03:10:21;;;;;;;6.95;3.00;;;22.00;62.90;23.70;101977.00;;;;5046901;28;20250;-81
2023/08/20 03:12:49;;;;;;;6.13;2.40;;;22.00;62.90;23.60;101979.00;;;;5048373;28;20199;-81
2023/08/20 03:15:17;;;;;;;4.22;2.50;;;22.00;62.90;23.60;101976.00;;;;5045586;28;20211;-82
2023/08/20 03:17:44;;;;;;;3.35;2.45;;;21.90;63.30;23.60;101976.00;;;;5039745;28;20204;-80
2023/08/20 03:20:12;;;;;;;4.63;2.42;;;21.90;62.90;23.60;101975.00;;;;5028098;28;20556;-79
2023/08/20 03:22:40;;;;;;;3.78;2.50;;;21.90;63.00;23.50;101974.00;;;;5028783;28;20212;-81
2023/08/20 03:25:08;;;;;;;5.32;2.55;;;21.90;63.00;23.50;101974.00;;;;5047010;28;20205;-80
2023/08/20 03:27:35;;;;;;;6.13;2.70;;;21.80;62.90;23.50;101969.00;;;;5046341;28;20196;-80
2023/08/20 03:30:04;;;;;;;4.18;2.40;;;21.80;62.90;23.50;101976.00;;;;5047303;28;20224;-80
2023/08/20 03:32:31;;;;;;;4.95;2.45;;;21.80;63.10;23.50;101983.00;;;;5039510;28;20192;-80
2023/08/20 03:34:59;;;;;;;5.80;2.75;;;21.80;63.00;23.50;101977.00;;;;5028813;28;20204;-80
2023/08/20 03:37:26;;;;;;;4.35;2.83;;;21.70;63.00;23.40;101983.00;;;;5028620;28;20204;-80
2023/08/20 03:39:53;;;;;;;3.45;2.38;;;21.70;63.00;23.40;101988.00;;;;5027998;28;20195;-80
2023/08/20 03:42:20;;;;;;;4.85;2.95;;;21.70;63.10;23.40;101988.00;;;;5041394;28;20203;-81
2023/08/20 03:44:47;;;;;;;2.72;2.20;;;21.60;63.00;23.40;101985.00;;;;5040811;28;20211;-80
2023/08/20 03:47:19;;;;;;;4.47;2.40;;;21.60;63.00;23.30;101996.00;;;;5047445;28;20387;-80
2023/08/20 03:49:47;;;;;;;9.15;3.33;;;21.60;63.80;23.30;101991.00;;;;5047229;28;20663;-80
2023/08/20 03:52:14;;;;;;;3.13;2.67;;;21.60;63.10;23.30;101997.00;;;;5041552;28;20305;-80
2023/08/20 03:54:44;;;;;;;3.88;2.28;;;21.60;63.20;23.30;101996.00;;;;5047420;28;20198;-80
2023/08/20 03:57:10;;;;;;;5.47;2.50;;;21.50;63.10;23.30;101992.00;;;;5042810;28;20255;-81
2023/08/20 03:59:37;;;;;;;4.60;2.10;;;21.50;63.20;23.20;101992.00;;;;5046969;28;20195;-80
2023/08/20 04:02:05;;;;;;;2.83;2.60;;;21.50;63.30;23.20;101998.00;;;;5047184;28;20580;-80
2023/08/20 04:04:33;;;;;;;3.42;2.40;;;21.50;63.30;23.20;102003.00;;;;5047676;28;20195;-79
2023/08/20 04:07:00;;;;;;;4.63;3.00;;;21.50;63.40;23.20;102003.00;;;;5041854;28;20203;-79
2023/08/20 04:09:27;;;;;;;4.32;2.50;;;21.40;63.40;23.20;102010.00;;;;5033795;28;20200;-79
2023/08/20 04:11:54;;;;;;;3.15;2.10;;;21.40;63.40;23.20;102004.00;;;;5041593;28;20325;-80
2023/08/20 04:14:21;;;;;;;5.15;2.30;;;21.40;63.40;23.10;102004.00;;;;5040893;28;20200;-80
2023/08/20 04:16:48;;;;;;;3.53;2.78;;;21.40;63.40;23.10;102007.00;;;;5037665;28;20206;-79
2023/08/20 04:19:14;;;;;;;4.35;2.33;;;21.40;64.10;23.10;102013.00;;;;5045599;28;20211;-80
2023/08/20 04:21:43;;;;;;;3.10;2.28;;;21.40;63.50;23.10;102012.00;;;;5045843;28;20200;-79
2023/08/20 04:24:10;;;;;;;2.67;1.88;;;21.40;63.50;23.10;102022.00;;;;5045828;28;20195;-80
2023/08/20 04:26:37;;;;;;;2.83;1.98;;;21.30;63.50;23.10;102020.00;;;;5046506;28;20294;-79
2023/08/20 04:29:04;;;;;;;4.15;2.00;;;21.30;63.50;23.10;102021.00;;;;5045742;28;20210;-79
2023/08/20 04:31:32;;;;;;;5.15;2.05;;;21.30;63.50;23.00;102025.00;;;;5046490;28;20223;-80
2023/08/20 04:34:00;;;;;;;3.58;1.80;;;21.30;63.60;23.00;102029.00;;;;5046071;28;20207;-80
2023/08/20 04:36:27;;;;;;;3.72;2.45;;;21.30;63.60;23.00;102034.00;;;;5047030;28;20199;-80
2023/08/20 04:38:55;;;;;;;2.78;1.92;;;21.30;63.70;23.00;102026.00;;;;5037362;28;20572;-80
2023/08/20 04:41:22;;;;;;;5.90;2.53;;;21.20;63.70;23.00;102024.00;;;;5043428;28;20212;-80
2023/08/20 04:43:49;;;;;;;3.30;1.80;;;21.30;63.70;23.00;102032.00;;;;5045121;28;20687;-80
2023/08/20 04:46:16;;;;;;;7.13;2.35;;;21.30;63.80;23.00;102029.00;;;;5047063;28;20206;-80
2023/08/20 04:48:43;;;;;;;4.05;2.33;;;21.20;63.80;23.00;102037.00;;;;5040162;28;20660;-80
2023/08/20 04:51:11;;;;;;;3.15;2.30;;;21.20;63.80;23.00;102037.00;;;;5044977;28;20230;-80
2023/08/20 04:53:38;;;;;;;5.60;2.22;;;21.20;63.90;23.00;102042.00;;;;5046690;28;20257;-80
2023/08/20 04:56:07;;;;;;;3.47;2.03;;;21.20;63.90;23.00;102028.00;;;;5046702;28;20196;-80
2023/08/20 04:58:34;;;;;;;4.32;1.83;;;21.20;64.00;23.00;102038.00;;;;5031188;28;20187;-80
2023/08/20 05:01:00;;;;;;;2.80;2.00;;;21.20;64.00;23.00;102039.00;;;;5037871;28;20545;-80
2023/08/20 05:03:27;;;;;;;5.18;1.95;;;21.20;64.00;23.00;102041.00;;;;5042302;28;20218;-80
2023/08/20 05:05:54;;;;;;;1.80;1.67;;;21.20;64.10;23.00;102050.00;;;;5049465;28;20196;-80
2023/08/20 05:08:21;;;;;;;2.42;2.22;;;21.20;64.10;23.00;102048.00;;;;5050067;28;20219;-80
2023/08/20 05:10:50;;;;;;;3.17;2.22;;;21.30;64.20;22.90;102051.00;;;;5049820;28;20227;-80
2023/08/20 05:13:20;;;;;;;5.43;2.20;;;21.20;64.10;23.00;102050.00;;;;5047733;28;20203;-81
2023/08/20 05:15:47;;;;;;;4.00;2.17;;;21.20;64.10;22.90;102048.00;;;;5049159;28;20278;-81
2023/08/20 05:18:14;;;;;;;2.92;2.15;;;21.20;64.10;23.00;102052.00;;;;5031416;28;21020;-80
2023/08/20 05:20:41;;;;;;;3.50;1.98;;;21.20;64.10;23.00;102049.00;;;;5049830;28;20210;-80
2023/08/20 05:23:08;;;;;;;2.75;1.75;;;21.20;64.10;23.00;102048.00;;;;5030407;28;20200;-80
2023/08/20 05:25:35;;;;;;;4.97;1.80;;;21.20;64.10;23.00;102054.00;;;;5029737;28;20193;-80
2023/08/20 05:28:03;;;;;;;5.00;2.30;;;21.20;64.10;23.00;102053.00;;;;5031722;28;20230;-80
2023/08/20 05:30:31;;;;;;;2.42;1.90;;;21.20;64.20;23.00;102055.00;;;;5040871;28;20668;-80
2023/08/20 05:32:58;;;;;;;2.70;1.90;;;21.20;64.20;23.00;102060.00;;;;5049233;28;20199;-80
2023/08/20 05:35:25;;;;;;;3.30;2.15;;;21.30;64.30;23.00;102060.00;;;;5030622;28;20192;-80
2023/08/20 05:37:53;;;;;;;2.05;1.63;;;21.30;64.30;23.00;102057.00;;;;5045732;28;20206;-80
2023/08/20 05:40:20;;;;;;;4.65;2.10;;;21.30;64.30;23.00;102060.00;;;;5049665;28;20214;-80
2023/08/20 05:42:47;;;;;;;2.17;1.77;;;21.30;64.40;23.00;102066.00;;;;5049147;28;20641;-80
2023/08/20 05:45:14;;;;;;;2.17;1.90;;;21.30;64.40;23.00;102062.00;;;;5048031;28;20980;-80
2023/08/20 05:47:43;;;;;;;3.00;2.20;;;21.30;64.40;23.00;102073.00;;;;5048251;28;20207;-80
2023/08/20 05:50:10;;;;;;;3.85;2.08;;;21.30;64.50;23.10;102065.00;;;;5046924;28;20203;-80
2023/08/20 05:52:37;;;;;;;4.18;2.30;;;21.30;64.50;23.10;102063.00;;;;5048826;28;20220;-80
2023/08/20 05:55:05;;;;;;;2.80;1.83;;;21.40;64.70;23.10;102061.00;;;;5047541;28;20199;-80
2023/08/20 05:57:32;;;;;;;3.38;2.08;;;21.30;64.70;23.20;102063.00;;;;5048507;28;20207;-80
2023/08/20 05:59:59;;;;;;;2.97;2.08;;;21.40;64.80;23.20;102065.00;;;;5047069;28;20196;-80
2023/08/20 06:02:26;;;;;;;3.05;1.88;;;21.40;64.80;23.30;102063.00;;;;5046387;28;20322;-80
2023/08/20 06:04:57;;;;;;;2.75;2.08;;;21.50;65.00;23.30;102066.00;;;;5043695;28;20206;-80
2023/08/20 06:07:24;;;;;;;5.15;2.20;;;21.50;65.10;23.40;102066.00;;;;5036853;28;20242;-81
2023/08/20 06:09:51;;;;;;;4.30;2.40;;;21.50;65.00;23.40;102055.00;;;;5039367;28;20214;-81
2023/08/20 06:12:18;;;;;;;3.45;1.90;;;21.60;65.10;23.50;102061.00;;;;5046050;28;20223;-80
2023/08/20 06:14:45;;;;;;;3.28;2.25;;;21.60;65.10;23.50;102057.00;;;;5048884;28;20210;-80
2023/08/20 06:17:13;;;;;;;4.07;1.77;;;21.70;65.30;23.60;102060.00;;;;5041052;28;20204;-81
2023/08/20 06:19:40;;;;;;;4.75;1.98;;;21.80;65.30;23.70;102054.00;;;;5047062;28;20647;-81
2023/08/20 06:22:09;;;;;;;2.25;2.00;;;21.90;65.30;23.70;102057.00;;;;5039799;28;20210;-81
2023/08/20 06:24:36;;;;;;;4.47;2.10;;;21.90;65.40;23.80;102055.00;;;;5033276;28;20230;-80
2023/08/20 06:27:03;;;;;;;4.35;2.13;;;22.00;65.40;23.90;102065.00;;;;5047108;28;20221;-81
2023/08/20 06:29:30;;;;;;;3.28;2.00;;;22.10;65.40;23.90;102056.00;;;;5043575;28;20227;-80
2023/08/20 06:32:00;;;;;;;5.68;2.28;;;22.10;65.30;24.00;102059.00;;;;5046264;28;20230;-82
2023/08/20 06:34:27;;;;;;;3.00;2.08;;;22.20;65.30;24.10;102061.00;;;;5045328;28;20928;-81
2023/08/20 06:36:54;;;;;;;4.18;2.28;;;22.30;66.00;24.20;102059.00;;;;5048044;28;20214;-81
2023/08/20 06:39:22;;;;;;;5.80;2.00;;;22.30;65.40;24.20;102056.00;;;;5029016;28;20208;-81
2023/08/20 06:41:50;;;;;;;2.40;1.73;;;22.40;65.30;24.30;102066.00;;;;5030156;28;20292;-81
2023/08/20 06:44:17;;;;;;;3.33;1.92;;;22.50;65.30;24.40;102060.00;;;;5042892;28;20212;-81
2023/08/20 06:46:44;;;;;;;1.98;1.52;;;22.60;65.20;24.40;102051.00;;;;5027334;28;20188;-81
2023/08/20 06:49:12;;;;;;;3.80;1.63;;;22.70;65.20;24.50;102050.00;;;;5033103;28;20210;-81
2023/08/20 06:51:39;;;;;;;4.20;2.08;;;22.70;65.10;24.50;102051.00;;;;5036987;28;20219;-80
2023/08/20 06:54:07;;;;;;;3.03;1.58;;;22.80;65.10;24.60;102056.00;;;;5047211;28;20928;-81
2023/08/20 06:56:36;;;;;;;7.05;2.72;;;22.90;65.10;24.70;102057.00;;;;5039948;28;20234;-80
2023/08/20 06:59:03;;;;;;;4.68;1.75;;;22.90;65.10;24.80;102051.00;;;;5032900;28;20211;-82
2023/08/20 07:01:30;;;;;;;3.97;1.25;;;23.00;65.10;24.90;102053.00;;;;5034733;28;20702;-81
2023/08/20 07:03:57;;;;;;;2.35;1.55;;;23.10;65.10;24.90;102051.00;;;;5048848;28;20203;-84
2023/08/20 07:06:24;;;;;;;8.80;2.08;;;23.20;65.00;25.00;102056.00;;;;5048104;28;20210;-84
2023/08/20 07:08:51;;;;;;;7.65;1.63;;;23.30;65.00;25.10;102058.00;;;;5044212;28;20215;-81
2023/08/20 07:11:19;;;;;;;3.17;1.30;;;23.30;64.90;25.10;102047.00;;;;5048009;28;20251;-83
2023/08/20 07:13:50;;;;;;;3.50;1.40;;;23.40;64.80;25.20;102054.00;;;;5039380;28;20196;-84
2023/08/20 07:16:17;;;;;;;6.28;1.75;;;23.50;64.70;25.30;102055.00;;;;5040939;28;20615;-83
2023/08/20 07:18:44;;;;;;;3.72;1.58;;;23.60;64.60;25.30;102061.00;;;;5040296;28;20651;-81
2023/08/20 07:21:11;;;;;;;2.83;1.27;;;23.70;64.40;25.40;102075.00;;;;5047732;28;20580;-82
2023/08/20 07:23:38;;;;;;;1.77;1.38;;;23.70;64.40;25.50;102075.00;;;;5047297;28;20191;-81
2023/08/20 07:26:09;;;;;;;2.38;1.10;;;23.80;64.40;25.60;102066.00;;;;5046403;28;20215;-79
2023/08/20 07:31:18;;;;;;;4.13;1.27;;;23.90;64.30;25.70;102078.00;;;;5045506;28;20579;-80
2023/08/20 07:33:47;;;;;;;4.60;1.50;;;24.10;64.30;25.80;102081.00;;;;5033016;28;20586;-80
2023/08/20 07:36:15;;;;;;;1.02;0.77;;;24.10;64.20;25.90;102077.00;;;;5044357;28;20271;-79
2023/08/20 07:38:42;;;;;;;4.85;1.30;;;24.20;64.00;25.90;102071.00;;;;5045141;28;20714;-79
2023/08/20 07:41:10;;;;;;;4.35;1.48;;;24.30;64.00;26.00;102082.00;;;;5042024;28;20290;-79
2023/08/20 07:43:39;;;;;;;4.55;1.23;;;24.40;64.00;26.10;102089.00;;;;5045705;28;20203;-79
2023/08/20 07:46:06;;;;;;;2.42;1.17;;;24.50;63.90;26.20;102089.00;;;;5032705;28;20200;-79
2023/08/20 07:48:35;;;;;;;4.72;1.65;;;24.50;63.70;26.30;102093.00;;;;5034324;28;20187;-79
2023/08/20 07:51:03;;;;;;;4.63;1.27;;;24.60;63.50;26.40;102103.00;;;;5045013;28;20219;-79
2023/08/20 07:53:30;;;;;;;3.00;1.40;;;24.70;63.40;26.40;102110.00;;;;5046155;28;20701;-79
2023/08/20 07:55:58;;;;;;;4.10;1.10;;;24.70;63.20;26.50;102109.00;;;;5044835;28;20202;-79
2023/08/20 07:58:25;;;;;;;2.50;1.23;;;24.80;63.10;26.50;102106.00;;;;5047601;28;20215;-80
2023/08/20 08:00:52;;;;;;;3.85;1.33;;;24.90;63.00;26.60;102108.00;;;;5042643;28;20200;-80
2023/08/20 08:03:19;;;;;;;2.47;0.80;;;25.00;62.80;26.70;102106.00;;;;5035603;28;20265;-80
2023/08/20 08:05:49;;;;;;;3.90;1.17;;;25.00;62.70;26.70;102100.00;;;;5043824;28;20199;-80
2023/08/20 08:08:17;;;;;;;4.80;1.70;;;25.10;62.60;26.80;102100.00;;;;5046367;28;20207;-80
2023/08/20 08:10:45;;;;;;;3.28;1.17;;;25.20;62.60;26.90;102112.00;;;;5037937;28;20238;-76
2023/08/20 08:13:17;;;;;;;2.47;1.25;;;25.30;62.40;26.90;102111.00;;;;5037852;28;20289;-77
2023/08/20 08:15:44;;;;;;;3.63;1.10;;;25.30;62.00;27.00;102111.00;;;;5038235;28;20196;-78
2023/08/20 08:18:14;;;;;;;2.63;0.90;;;25.40;61.90;27.10;102111.00;;;;5040511;28;20245;-78
2023/08/20 08:20:43;;;;;;;4.60;1.20;;;25.50;61.70;27.10;102117.00;;;;5036936;28;20192;-79
2023/08/20 08:23:12;;;;;;;4.05;1.33;;;25.50;61.40;27.20;102116.00;;;;5039986;28;20210;-78
2023/08/20 08:25:39;;;;;;;5.07;1.20;;;25.60;61.60;27.30;102120.00;;;;5039340;28;20198;-78
2023/08/20 08:28:07;;;;;;;4.55;1.27;;;25.70;61.50;27.30;102113.00;;;;5038986;28;20203;-78
2023/08/20 08:30:35;;;;;;;4.03;1.05;;;25.70;61.20;27.40;102120.00;;;;5038741;28;20203;-78
2023/08/20 08:33:04;;;;;;;3.45;1.02;;;25.80;61.20;27.40;102127.00;;;;5045703;28;20262;-78
2023/08/20 08:35:36;;;;;;;3.10;0.80;;;25.90;61.10;27.40;102125.00;;;;5046063;28;20287;-78
2023/08/20 08:38:13;;;;;;;2.72;1.40;;;25.90;60.90;27.50;102131.00;;;;5040929;28;21077;-78
2023/08/20 08:40:43;;;;;;;2.97;1.15;;;26.00;60.50;27.60;102132.00;;;;5048185;28;20575;-79
2023/08/20 08:43:16;;;;;;;1.58;0.75;;;26.10;60.90;27.70;102134.00;;;;5050171;28;20215;-78
2023/08/20 08:45:47;;;;;;;3.47;0.75;;;26.20;60.20;27.70;102138.00;;;;5051074;28;20204;-78
2023/08/20 08:48:16;;;;;;;2.00;0.88;;;26.20;60.00;27.80;102132.00;;;;5050163;28;20261;-79
2023/08/20 08:50:44;;;;;;;2.80;0.80;;;26.30;60.10;27.90;102139.00;;;;5050274;28;20314;-78
2023/08/20 08:53:11;;;;;;;8.13;1.10;;;26.40;60.00;28.00;102134.00;;;;5049573;28;20223;-76
2023/08/20 08:55:40;;;;;;;2.83;0.88;;;26.50;60.00;28.00;102137.00;;;;5049241;28;20199;-79
2023/08/20 08:58:07;;;;;;;2.83;0.82;;;26.50;59.90;28.10;102135.00;;;;5039621;28;20572;-79
2023/08/20 09:00:34;;;;;;;4.40;0.82;;;26.60;59.80;28.20;102133.00;;;;5050399;28;20655;-80
2023/08/20 09:03:01;;;;;;;3.08;1.25;;;26.70;59.80;28.30;102141.00;;;;5050825;28;20574;-78
2023/08/20 09:05:28;;;;;;;3.58;1.58;;;26.80;59.70;28.40;102142.00;;;;5047914;28;20196;-79
2023/08/20 09:07:57;;;;;;;3.05;1.13;;;26.90;59.40;28.50;102140.00;;;;5041427;28;20215;-80
2023/08/20 09:10:28;;;;;;;4.05;0.90;;;27.00;59.30;28.50;102136.00;;;;5050056;28;20714;-79
2023/08/20 09:12:58;;;;;;;5.03;1.35;;;27.10;59.00;28.60;102133.00;;;;5044235;28;20220;-80
2023/08/20 09:15:35;;;;;;;3.95;1.48;;;27.10;59.30;28.60;102138.00;;;;5044220;28;20200;-80
2023/08/20 09:18:03;;;;;;;2.53;0.90;;;27.20;58.70;28.80;102140.00;;;;5048976;28;20199;-80
2023/08/20 09:20:37;;;;;;;2.22;0.85;;;27.40;59.00;28.90;102140.00;;;;5049857;28;20245;-79
2023/08/20 09:23:05;;;;;;;3.95;1.27;;;27.40;58.40;29.00;102142.00;;;;5046516;28;20214;-80
2023/08/20 09:25:32;;;;;;;4.32;1.00;;;27.60;58.70;29.10;102140.00;;;;5048921;28;20211;-80
2023/08/20 09:28:04;;;;;;;1.27;0.63;;;27.60;58.50;29.20;102146.00;;;;5048874;28;20207;-79
2023/08/20 09:30:31;;;;;;;2.92;0.80;;;27.70;58.10;29.30;102142.00;;;;5050047;28;20619;-80
2023/08/20 09:33:08;;;;;;;4.78;0.70;;;27.90;58.30;29.40;102148.00;;;;5043862;28;20305;-79
2023/08/20 09:35:35;;;;;;;2.13;0.65;;;27.90;57.50;29.50;102146.00;;;;5049835;28;20570;-79
2023/08/20 09:38:04;;;;;;;2.40;0.73;;;28.10;57.80;29.60;102151.00;;;;5046397;28;20200;-80
2023/08/20 09:40:31;;;;;;;1.58;0.65;;;28.20;57.60;29.70;102144.00;;;;5049397;28;20196;-77
2023/08/20 09:42:59;;;;;;;2.47;0.80;;;28.30;57.50;29.70;102146.00;;;;5048794;28;20222;-77
2023/08/20 09:45:29;;;;;;;3.35;1.05;;;28.40;57.30;29.80;102146.00;;;;5049394;28;20203;-75
2023/08/20 09:48:00;;;;;;;2.15;0.68;;;28.40;56.70;29.80;102151.00;;;;5047400;28;20203;-78
2023/08/20 09:50:36;;;;;;;2.47;0.90;;;28.50;56.10;29.80;102143.00;;;;5045430;28;20200;-81
2023/08/20 09:53:12;;;;;;;2.58;0.90;;;28.50;56.40;29.90;102149.00;;;;5045643;28;20378;-81
2023/08/20 09:55:43;;;;;;;2.58;0.60;;;28.60;56.40;30.10;102138.00;;;;5047012;28;20640;-79
2023/08/20 09:58:11;;;;;;;2.40;0.90;;;28.70;57.10;30.20;102147.00;;;;5048342;28;20195;-78
2023/08/20 10:00:40;;;;;;;2.50;0.60;;;28.80;56.50;30.30;102157.00;;;;5039569;28;20193;-76
2023/08/20 10:03:07;;;;;;;1.27;0.63;;;28.90;56.10;30.30;102151.00;;;;5047250;28;20196;-79
2023/08/20 10:05:34;;;;;;;2.70;0.68;;;29.00;56.20;30.40;102149.00;;;;5039472;28;20246;-79
2023/08/20 10:08:02;;;;;;;1.95;0.60;;;29.10;55.90;30.50;102156.00;;;;5047828;28;20254;-79
2023/08/20 10:10:30;;;;;;;2.25;0.50;;;29.10;55.50;30.50;102161.00;;;;5046755;28;20231;-79
2023/08/20 10:12:57;;;;;;;2.28;0.60;;;29.20;55.30;30.50;102156.00;;;;5045874;28;20565;-80
2023/08/20 10:15:26;;;;;;;1.48;0.60;;;29.30;55.10;30.60;102164.00;;;;5048148;28;20667;-79
2023/08/20 10:17:58;;;;;;;1.38;0.50;;;29.30;55.00;30.70;102161.00;;;;5047183;28;20214;-79
2023/08/20 10:20:29;;;;;;;4.60;1.08;;;29.40;55.00;30.70;102156.00;;;;5047473;28;20199;-80
2023/08/20 10:23:04;;;;;;;2.28;0.52;;;29.40;54.20;30.70;102162.00;;;;5045526;28;20212;-79
2023/08/20 10:25:31;;;;;;;6.20;0.65;;;29.50;53.60;30.80;102156.00;;;;5045694;28;20677;-81
2023/08/20 10:28:15;;;;;;;2.05;0.77;;;29.50;53.80;30.80;102161.00;;;;5047066;28;20206;-79
2023/08/20 10:31:08;;;;;;;2.60;0.50;;;29.60;53.40;30.80;102159.00;;;;5046385;28;20206;-80
2023/08/20 10:33:39;;;;;;;0.80;0.50;;;29.60;52.50;30.90;102161.00;;;;5045112;28;20227;-79
2023/08/20 10:36:14;;;;;;;2.60;0.70;;;29.70;53.10;31.00;102155.00;;;;5047341;28;20195;-80
2023/08/20 10:38:41;;;;;;;1.08;0.35;;;29.80;53.00;31.10;102151.00;;;;5037368;28;20201;-80
2023/08/20 10:41:09;;;;;;;2.63;0.80;;;29.80;53.40;31.20;102155.00;;;;5044524;28;20207;-79
2023/08/20 10:43:39;;;;;;;2.13;0.73;;;29.90;53.30;31.30;102157.00;;;;5037292;28;20470;-79
2023/08/20 10:46:18;;;;;;;0.82;0.40;;;29.80;50.80;31.30;102161.00;;;;5042892;28;20960;-80
2023/08/20 10:48:51;;;;;;;0.75;0.40;;;29.90;51.80;31.30;102165.00;;;;5034599;28;20199;-81
2023/08/20 10:51:24;;;;;;;1.15;0.40;;;30.00;51.60;31.40;102156.00;;;;5045693;28;20211;-80
2023/08/20 10:54:06;;;;;;;2.47;0.93;;;30.10;51.80;31.30;102160.00;;;;5046508;28;20231;-79
2023/08/20 10:56:42;;;;;;;2.63;0.60;;;30.20;50.70;31.30;102150.00;;;;5045832;28;20245;-78